Have a Safe July 4th! 

Flight Track Log - Related Links

Times and Time Zones

All times are in EDT time to prevent confusion due to time zone crossing. See the KAP46 flight status page for this flight to view local times or setup timezone preferences in your user account.

Time Position Orientation Groundspeed Altitude Reporting Facility
EDT Latitude Longitude Course Direction KTS MPH feet Rate Location/Type
Sat 05:58:17 PM 44.4283 -74.6203 160° South 150 173 8,500  Level Boston Center
Sat 05:59:18 PM 44.3847 -74.5983 160° South 163 188 8,900 446 Climbing Boston Center
Sat 06:00:18 PM 44.3436 -74.5708 154° Southeast 163 188 9,400 305 Climbing Boston Center
Sat 06:01:16 PM 44.2961 -74.5517 164° South 168 193 9,500 51 Climbing Boston Center
Sat 06:02:16 PM 44.2467 -74.5239 158° South 178 205 9,500  Level Boston Center
Sat 06:03:00 PM 44.6978 -74.7238 160° South  Level FlightAware Approximate
Sat 06:03:17 PM 44.1992 -74.5047 164° South 185 213 9,500  Level Boston Center
Sat 06:04:17 PM 44.1517 -74.4800 160° South 185 213 9,500  Level Boston Center
Sat 06:05:17 PM 44.1042 -74.4553 160° South 185 213 9,500  Level Boston Center
Sat 06:06:18 PM 44.0522 -74.4333 163° South 185 213 9,500  Level Boston Center
Sat 06:07:18 PM 44.0069 -74.4086 159° South 185 213 9,500  Level Boston Center
Sat 06:08:16 PM 43.9572 -74.3869 163° South 185 213 9,500  Level Boston Center
Sat 06:09:16 PM 43.9119 -74.3622 159° South 185 213 9,500  Level Boston Center
Sat 06:10:17 PM 43.8644 -74.3378 160° South 185 213 9,500  Level Boston Center
Sat 06:11:17 PM 43.8167 -74.3133 160° South 185 213 9,500  Level Boston Center
Sat 06:12:18 PM 43.7692 -74.2886 159° South 185 213 9,500  Level Boston Center
Sat 06:13:18 PM 43.7197 -74.2614 158° South 185 213 9,500 51 Level Boston Center
Sat 06:14:16 PM 43.6722 -74.2369 160° South 185 213 9,600  Climbing Boston Center
Sat 06:14:58 PM 43.6328 -74.2186 161° South 187 215 9,500 -286 Descending Boston Center
Sat 06:15:40 PM 43.5997 -74.2033 161° South 190 219 9,200 -380 Descending Boston Center
Sat 06:16:17 PM 43.5686 -74.1881 160° South 185 213 9,000 -250 Descending Boston Center
Sat 06:17:16 PM 43.5128 -74.1606 160° South 190 219 8,800 -300 Descending Boston Center
Sat 06:18:17 PM 43.4611 -74.1364 161° South 190 219 8,400 -372 Descending Boston Center
Sat 06:19:09 PM 43.4136 -74.1150 162° South 200 230 8,100 -519 Descending Boston Center
Sat 06:20:01 PM 43.3700 -74.0967 163° South 202 232 7,500 -550 Descending Boston Center
Sat 06:20:58 PM 43.3203 -74.0725 161° South 206 237 7,100 -522 Descending Boston Center
Sat 06:21:56 PM 43.2686 -74.0483 161° South 197 227 6,500 -545 Descending Boston Center
Sat 06:22:59 PM 43.2125 -74.0297 166° South 191 220 6,000 -429 Descending Boston Center
Sat 06:23:48 PM 43.1711 -74.0117 162° South 197 227 5,700 -396 Descending Boston Center
Sat 06:24:30 PM 43.1506 -73.9967 152° Southeast 201 231 5,400 -353 Descending Boston Center
Sat 06:25:30 PM 43.0842 -73.9639 160° South 201 231 5,100 -356 Descending Boston Center
Sat 06:26:28 PM 43.0386 -73.9428 161° South 201 231 4,700 -458 Descending Boston Center
Sat 06:27:28 PM 42.9847 -73.9158 160° South 201 231 4,200 -347 Descending Boston Center
Sat 06:28:29 PM 42.9497 -73.8953 157° South 196 226 4,000 -295 Descending Boston Center
Sat 06:29:30 PM 42.8983 -73.8403 142° Southeast 186 214 3,600 -169 Descending Boston Center
Sat 06:30:51 PM 42.8575 -73.7683 128° Southeast 178 205 3,600 -169 Level Boston Center
Sat 06:31:52 PM 42.8183 -73.7281 143° Southeast 184 212 3,200 -496 Descending Boston Center
Sat 06:32:52 PM 42.7811 -73.6906 144° Southeast 149 171 2,600 -744 Descending Boston Center
Sat 06:33:53 PM 42.7519 -73.7011 195° South 113 130 1,700 -738 Descending Boston Center
Sat 06:34:54 PM 42.7494 -73.7436 265° West 92 106 1,100 -569 Descending Boston Center
Sat 06:35:49 PM 42.7511 -73.7747 274° West 102 117 600 33 Descending Boston Center
Sat 06:37:00 PM 42.7333 -73.8000 170° South  Level FlightAware Approximate
Sat 06:44:00 PM 42.7491 -73.8020 170° South  Level Estimated
Sat 06:45:00 PM 42.7491 -73.8020 170° South  Level Estimated
Sat 06:46:00 PM 42.7491 -73.8020 170° South  Level Estimated
Sat 06:58:47 PM 42.7603 -73.8653 289° West 98 113 1,900  Level Boston Center
Sat 06:59:48 PM 42.7725 -73.9025 294° West 102 117 2,400 532 Climbing Boston Center
Sat 07:00:51 PM 42.7992 -73.9172 338° Northwest 115 132 3,000 585 Climbing Boston Center
Sat 07:01:51 PM 42.8303 -73.9322 341° North 122 140 3,600 545 Climbing Boston Center
Sat 07:02:52 PM 42.8636 -73.9497 339° North 126 145 4,100 496 Climbing Boston Center
Sat 07:03:52 PM 42.8989 -73.9592 349° North 129 148 4,600 545 Climbing Boston Center
Sat 07:04:53 PM 42.9339 -73.9772 339° North 131 151 5,200 537 Climbing Boston Center
Sat 07:05:55 PM 42.9672 -73.9922 342° North 128 147 5,700 550 Climbing Boston Center
Sat 07:06:53 PM 43.0086 -74.0044 348° North 132 152 6,300 403 Climbing Boston Center
Sat 07:07:54 PM 43.0439 -74.0225 339° North 138 159 6,500 98 Climbing Boston Center
Sat 07:08:55 PM 43.0853 -74.0406 342° North 158 182 6,500 -46 Level Boston Center
Sat 07:10:04 PM 43.1289 -74.0561 345° North 157 181 6,400 -46 Descending Boston Center
Sat 07:11:05 PM 43.1639 -74.0711 343° North 146 168 6,400  Level Boston Center
Sat 07:12:05 PM 43.2097 -74.0894 344° North 151 174 6,400  Level Boston Center
Sat 07:13:06 PM 43.2447 -74.1047 342° North 146 168 6,400  Level Boston Center
Sat 07:14:04 PM 43.2883 -74.1231 343° North 146 168 6,400  Level Boston Center
Sat 07:15:04 PM 43.3236 -74.1411 340° North 146 168 6,400  Level Boston Center
Sat 07:16:05 PM 43.3711 -74.1594 344° North 152 175 6,400 50 Level Boston Center
Sat 07:17:05 PM 43.4125 -74.1808 339° North 152 175 6,500 50 Climbing Boston Center
Sat 07:18:06 PM 43.4519 -74.1933 347° North 147 169 6,500  Level Boston Center
Sat 07:19:06 PM 43.4911 -74.2144 339° North 147 169 6,500 -102 Level Boston Center
Sat 07:20:04 PM 43.5347 -74.2300 346° North 147 169 6,300 -254 Descending Boston Center
Sat 07:21:04 PM 43.5781 -74.2486 343° North 152 175 6,000 -149 Descending Boston Center
Sat 07:22:05 PM 43.6153 -74.2669 340° North 152 175 6,000  Level Boston Center
Sat 07:23:04 PM 43.6569 -74.2825 345° North 152 175 6,000  Level Boston Center
Sat 07:24:04 PM 43.6983 -74.2981 345° North 152 175 6,000  Level Boston Center
Sat 07:25:05 PM 43.7375 -74.3164 341° North 147 169 6,000  Level Boston Center
Sat 07:26:05 PM 43.7769 -74.3322 344° North 147 169 6,000  Level Boston Center
Sat 07:27:05 PM 43.8183 -74.3536 340° North 147 169 6,000  Level Boston Center
Sat 07:28:04 PM 43.8575 -74.3692 344° North 147 169 6,000  Level Boston Center
Sat 07:29:05 PM 43.8969 -74.3850 344° North 147 169 6,000  Level Boston Center
Sat 07:30:06 PM 43.9361 -74.4036 341° North 147 169 6,000  Level Boston Center
Sat 07:31:07 PM 43.9756 -74.4192 344° North 147 169 6,000  Level Boston Center
Sat 07:32:04 PM 44.0147 -74.4350 344° North 147 169 6,000  Level Boston Center
Sat 07:33:05 PM 44.0542 -74.4536 341° North 147 169 6,000  Level Boston Center
Sat 07:34:06 PM 44.0933 -74.4694 344° North 147 169 6,000  Level Boston Center
Sat 07:35:04 PM 44.1325 -74.4908 339° North 147 169 6,000  Level Boston Center
Sat 07:36:04 PM 44.1719 -74.5039 347° North 147 169 6,000  Level Boston Center
Sat 07:37:05 PM 44.2133 -74.5228 342° North 147 169 6,000  Level Boston Center
Sat 07:38:05 PM 44.2506 -74.5383 343° North 147 169 6,000  Level Boston Center
Sat 07:39:06 PM 44.2897 -74.5572 341° North 147 169 6,000  Level Boston Center
Sat 07:40:06 PM 44.3292 -74.5731 344° North 147 169 6,000  Level Boston Center
Sat 07:41:07 PM 44.3683 -74.5892 344° North 147 169 6,000  Level Boston Center
Sat 07:42:04 PM 44.4078 -74.6050 344° North 147 169 6,000  Level Boston Center

Login

Don't have an account? Register now (free) for customized features, flight alerts, and more!